ヌーク空港の過去48時間の天気

ヌーク空港 (Godthaab / Nuuk)

現在時刻: 1/23 00:26 -03 (1/23 03:26 UTC) 以下の時間は現地時間です。

過去48時間のMETAR気象情報
時間 風向 風速(m/s) 視程 気温(℃) 湿度(%) 気圧(hPa) 天気現象
22 23:50 南南西 6 - -9 73 1009
22 22:50 南南西 8 - -9 73 1009 弱いしゅう雪
22 21:50 南南西 9 - -9 62 1009 弱い霧雪 もや
22 20:50 南西 9 - -9 73 1009 弱い霧雪
22 19:50 南西 8 5000m -9 67 1008 弱いしゅう雪
22 18:50 南西 8 10km以上 -9 73 1008 低い地吹雪 高い地吹雪
22 17:50 南西 5 10km以上 -9 67 1007 周辺でしゅう雨
22 16:50 南西 7 4000m -10 85 1007 低い地吹雪 周辺でしゅう雨
22 15:50 南西 5 10km以上 -9 67 1006 低い地吹雪
22 14:50 西南西 6 10km以上 -9 73 1005 低い地吹雪
22 13:50 西南西 4 10km以上 -9 85 1004 周辺でしゅう雨 弱いしゅう雪
22 12:50 西 4 4200m -8 73 1003 弱いしゅう雪
22 11:50 西南西 8 5000m -8 86 1002 低い地吹雪 弱いしゅう雪
22 10:50 西 7 3500m -8 93 1001 弱いしゅう雪 低い地吹雪
22 09:50 西南西 10 400m -8 93 1000 しゅう雪 低い地吹雪 高い地吹雪
22 08:50 西 9 5000m -6 93 997 低い地吹雪 弱いしゅう雪
22 07:50 西 7 6000m -5 93 995 弱いしゅう雪 低い地吹雪
22 06:50 西南西 6 - -5 93 993 弱いしゅう雪
22 05:50 南南東 7 - -5 93 991 弱い雪
22 04:50 南南東 8 - -5 86 990
22 03:50 南南東 11 - -5 86 990 しゅう雪
22 02:50 南東 9 - -4 63 990 弱いしゅう雪
22 01:50 南東 9 - -5 63 990 弱いしゅう雪
22 00:50 南東 4 - -4 63 990
21 23:50 南南東 5 - -4 68 990 弱い雪
21 22:50 南南東 9 4500m -4 74 991 弱いしゅう雪 高い地吹雪 低い地吹雪
21 21:50 南南東 9 5000m -4 74 991 弱いしゅう雪 高い地吹雪 低い地吹雪
21 20:50 南南東 10 1300m -5 86 991 弱い雪 高い地吹雪 低い地吹雪
21 19:50 6 1300m -5 93 991 弱い雪 高い地吹雪 低い地吹雪
21 18:50 4 6000m -4 80 991 周辺でしゅう雨
21 17:50 南南東 7 700m -4 86 991 雪 低い地吹雪 高い地吹雪
21 16:50 7 1700m -4 86 990 弱い雪 低い地吹雪
21 15:50 南南西 4 800m -5 100 990
21 14:50 南南西 4 2000m -4 93 989 弱い雪
21 13:50 3 4000m -4 86 989 弱いしゅう雪
21 12:50 3 10km以上 -4 86 989 弱いしゅう雪
21 11:50 4 10km以上 -4 80 989 周辺でしゅう雨
21 10:50 3 10km以上 -4 80 990 周辺でしゅう雨
21 09:50 2 10km以上 -4 68 990 周辺でしゅう雨
21 08:50 南東 2 10km以上 -4 63 990
21 07:50 3 10km以上 -4 58 990
21 06:50 4 10km以上 -5 63 990
21 05:50 東南東 6 - -4 54 991
21 04:50 東南東 7 - -4 58 991
21 03:50 6 - -4 54 992
21 02:50 6 - -4 54 993
21 01:50 東南東 6 - -4 54 994
21 00:50 東南東 5 - -4 54 995
BGGH 230250Z AUTO 21012KT 9999NDV VV003/// M09/M13 Q1009
BGGH 230150Z AUTO 21015KT 4100NDV -SHSN VV003/// M09/M13 Q1009
BGGH 230050Z AUTO 21017KT 4900NDV -SG BR BKN033/// M09/M15 Q1009
BGGH 222350Z AUTO 22017KT 1800NDV -SG BKN034/// M09/M13 Q1009
BGGH 222250Z 23015KT 5000 -SHSN BKN030 M09/M14 Q1008
BGGH 222150Z 23015KT 9999 DRSN BLSN BKN020 M09/M13 Q1008
BGGH 222050Z 23009KT 210V270 9999 VCSH BKN040 M09/M14 Q1007
BGGH 221950Z 23013KT 4000 DRSN VCSH BKN010 M10/M12 Q1007
BGGH 221850Z 23010KT 9999 DRSN BKN030 M09/M14 Q1006
BGGH 221750Z 24011KT 9999 DRSN BKN023 M09/M13 Q1005
BGGH 221650Z 24008KT 210V270 9999 3000N -SHSN VCSH BKN020 M09/M11 Q1004
BGGH 221550Z 26007KT 4200 -SHSN VV020 M08/M12 Q1003
BGGH 221450Z 25015KT 220V280 5000 1600N -SHSN DRSN SCT007 BKN014 BKN025 M08/M10 Q1002
BGGH 221350Z 27013KT 240V300 3500 -SHSN DRSN SCT006 BKN014 M08/M09 Q1001
BGGH 221250Z 25020G30KT 0400 SHSN DRSN BLSN VV004 M08/M09 Q1000
BGGH 221150Z 28017KT 5000 1500SW -SHSN DRSN SCT008 BKN012 BKN020 M06/M07 Q0997
BGGH 221050Z 28013KT 260V320 6000 -SHSN DRSN SCT008 BKN018 M05/M06 Q0995
BGGH 220950Z AUTO 24011KT 0550NDV -SHSN BKN012/// M05/M06 Q0993
BGGH 220850Z AUTO 16013KT 1200NDV -SN BKN017/// M05/M06 Q0991
BGGH 220750Z AUTO 16016KT 0500NDV SN BKN008/// BKN041/// BKN069/// BKN130/// M05/M07 Q0990 RESN
BGGH 220650Z AUTO 16021KT 0250NDV SHSN BKN011/// M05/M07 Q0990 RESHSN
BGGH 220550Z AUTO 14017G27KT 100V180 4000NDV -SHSN BKN026/// M04/M10 Q0990
BGGH 220450Z AUTO 14017G36KT 100V230 7000NDV -SHSN FEW031/// SCT150/// M05/M11 Q0990
BGGH 220350Z AUTO 14008KT 110V180 9999NDV FEW031/// BKN120/// M04/M10 Q0990
BGGH 220250Z AUTO 15010KT 4000NDV -SN BKN011/// M04/M09 Q0990
BGGH 220150Z 15018KT 4500 -SHSN BLSN DRSN BKN010 OVC030 M04/M08 Q0991
BGGH 220050Z 15018KT 5000 -SHSN BLSN DRSN BKN011 BKN020 OVC030 M04/M08 Q0991
BGGH 212350Z 16020KT 1300 -SN BLSN DRSN BKN008 OVC013 M05/M07 Q0991
BGGH 212250Z 17011KT 1300 -SN BLSN DRSN BKN008 OVC020 M05/M06 Q0991
BGGH 212150Z 17008KT 6000 VCSH FEW009 SCT022 BKN035 BKN055 M04/M07 Q0991
BGGH 212050Z 16014KT 0700 SN DRSN BLSN VV006 M04/M06 Q0991
BGGH 211950Z 17013KT 1700 -SN DRSN BKN007 OVC015 M04/M06 Q0990
BGGH 211850Z 21007KT 0800 SN VV008 M05/M05 Q0990
BGGH 211750Z 20007KT 170V230 2000 -SN OVC023 M04/M05 Q0989
BGGH 211650Z 18006KT 4000 -SHSN OVC025 M04/M06 Q0989
BGGH 211550Z 18006KT 9999 4900SW -SHSN OVC035 M04/M06 Q0989
BGGH 211450Z 19007KT 9999 4900SW VCSH OVC042 M04/M07 Q0989
BGGH 211350Z 19006KT 9999 4800S VCSH FEW030 OVC054 M04/M07 Q0990
BGGH 211250Z 17004KT 9999 VCSH SCT020 BKN048 BKN070 M04/M09 Q0990
BGGH 211150Z 14003KT 9999 BKN070 M04/M10 Q0990
BGGH 211050Z VRB05KT 9999 BKN060 M04/M11 Q0990
BGGH 210950Z 10008KT 9999 FEW070 BKN140 M05/M11 Q0990
BGGH 210850Z AUTO 11012KT 9999NDV SCT070/// BKN170/// M04/M12 Q0991
BGGH 210750Z AUTO 11013KT 9999NDV BKN045/// M04/M11 Q0991
BGGH 210650Z AUTO 10012KT 9999NDV OVC054/// M04/M12 Q0992
BGGH 210550Z AUTO 10012KT 9999NDV BKN046/// BKN080/// M04/M12 Q0993
BGGH 210450Z AUTO 11011KT 080V140 9999NDV FEW034/// SCT071/// BKN140/// M04/M12 Q0994
BGGH 210350Z AUTO 11009KT 9999NDV BKN050/// M04/M12 Q0995